createdAt,value
2019-04-05T00:01:44.912Z,11.73
2019-04-05T00:04:15.231Z,12.00
2019-04-05T00:06:45.541Z,11.73
2019-04-05T00:09:15.881Z,12.03
2019-04-05T00:11:46.195Z,11.93
2019-04-05T00:14:16.614Z,10.83
2019-04-05T00:16:46.921Z,12.07
2019-04-05T00:19:19.306Z,10.70
2019-04-05T00:21:49.599Z,11.27
2019-04-05T00:24:19.918Z,11.40
2019-04-05T00:26:50.238Z,10.47
2019-04-05T00:29:20.546Z,11.60
2019-04-05T00:31:50.902Z,11.50
2019-04-05T00:34:21.202Z,11.53
2019-04-05T00:36:51.512Z,11.30
2019-04-05T00:39:21.813Z,10.37
2019-04-05T00:41:52.170Z,10.23
2019-04-05T00:44:22.667Z,10.30
2019-04-05T00:46:52.979Z,10.40
2019-04-05T00:49:23.373Z,11.13
2019-04-05T00:51:53.741Z,10.73
2019-04-05T00:54:24.045Z,10.70
2019-04-05T00:56:54.347Z,10.80
2019-04-05T00:59:24.718Z,10.77
2019-04-05T01:01:55.099Z,11.37
2019-04-05T01:04:25.455Z,11.97
2019-04-05T01:06:55.790Z,10.17
2019-04-05T01:09:26.114Z,11.33
2019-04-05T01:11:56.416Z,11.27
2019-04-05T01:14:27.702Z,11.43
2019-04-05T01:16:58.018Z,11.73
2019-04-05T01:19:31.572Z,11.40
2019-04-05T01:22:05.846Z,11.33
2019-04-05T01:24:36.380Z,11.83
2019-04-05T01:27:08.178Z,11.03
2019-04-05T01:29:38.645Z,11.70
2019-04-05T01:32:08.950Z,11.40
2019-04-05T01:34:39.305Z,11.77
2019-04-05T01:37:09.646Z,11.43
2019-04-05T01:39:40.034Z,12.13
2019-04-05T01:42:10.742Z,11.63
2019-04-05T01:44:41.749Z,10.77
2019-04-05T01:47:12.075Z,11.30
2019-04-05T01:49:42.421Z,10.93
2019-04-05T01:52:12.735Z,11.17
2019-04-05T01:54:43.419Z,10.80
2019-04-05T01:57:13.818Z,13.40
2019-04-05T01:59:44.294Z,11.70
2019-04-05T02:02:14.723Z,11.27
2019-04-05T02:04:45.091Z,11.27
2019-04-05T02:07:15.402Z,12.20
2019-04-05T02:09:45.722Z,11.53
2019-04-05T02:12:16.030Z,11.33
2019-04-05T02:14:46.398Z,10.83
2019-04-05T02:17:16.844Z,10.90
2019-04-05T02:19:47.240Z,11.17
2019-04-05T02:22:17.493Z,11.13
2019-04-05T02:24:47.818Z,9.63
2019-04-05T02:27:18.127Z,9.37
2019-04-05T02:29:48.433Z,9.33
2019-04-05T02:32:18.761Z,8.80
2019-04-05T02:34:49.155Z,8.40
2019-04-05T02:37:19.450Z,7.87
2019-04-05T02:39:50.470Z,7.47
2019-04-05T02:42:21.772Z,7.73
2019-04-05T02:44:53.909Z,7.50
2019-04-05T02:47:24.873Z,7.47
2019-04-05T02:49:57.375Z,7.20
2019-04-05T02:52:28.499Z,8.43
2019-04-05T02:55:00.032Z,7.37
2019-04-05T02:57:31.695Z,6.77
2019-04-05T03:00:03.062Z,7.73
2019-04-05T03:02:34.206Z,6.77
2019-04-05T03:05:04.976Z,7.43
2019-04-05T03:07:35.788Z,7.60
2019-04-05T03:10:06.446Z,6.97
2019-04-05T03:12:38.001Z,7.00
2019-04-05T03:15:08.768Z,7.53
2019-04-05T03:17:40.859Z,7.87
2019-04-05T03:20:11.347Z,7.43
2019-04-05T03:22:41.798Z,7.83
2019-04-05T03:25:12.363Z,7.40
2019-04-05T03:27:42.753Z,7.33
2019-04-05T03:30:13.088Z,7.53
2019-04-05T03:32:43.561Z,7.20
2019-04-05T03:35:13.811Z,7.97
2019-04-05T03:37:44.155Z,7.70
2019-04-05T03:40:14.632Z,7.80
2019-04-05T03:42:44.961Z,7.80
2019-04-05T03:45:15.587Z,7.97
2019-04-05T03:47:45.995Z,7.30
2019-04-05T03:50:16.441Z,7.90
2019-04-05T03:52:46.765Z,7.77
2019-04-05T03:55:17.675Z,7.40
2019-04-05T03:57:48.184Z,8.47
2019-04-05T04:00:18.515Z,7.50
2019-04-05T04:02:49.326Z,7.93
2019-04-05T04:05:20.014Z,7.60
2019-04-05T04:07:50.317Z,8.60
2019-04-05T04:10:21.187Z,8.00
2019-04-05T04:12:51.656Z,8.33
2019-04-05T04:15:22.137Z,7.93
2019-04-05T04:18:36.163Z,7.80
2019-04-05T04:21:17.695Z,8.33
2019-04-05T04:23:48.505Z,7.80
2019-04-05T04:26:20.159Z,8.47
2019-04-05T04:28:51.388Z,8.30
2019-04-05T04:31:22.434Z,7.77
2019-04-05T04:33:53.549Z,7.97
2019-04-05T04:36:25.608Z,8.40
2019-04-05T04:38:56.370Z,7.63
2019-04-05T04:41:27.392Z,8.00
2019-04-05T04:43:59.622Z,8.47
2019-04-05T04:46:31.189Z,8.00
2019-04-05T04:49:03.587Z,8.00
2019-04-05T04:51:35.489Z,9.07
2019-04-05T04:54:06.294Z,8.30
2019-04-05T04:56:37.592Z,8.60
2019-04-05T04:59:08.362Z,7.80
2019-04-05T05:01:39.871Z,8.60
2019-04-05T05:04:10.719Z,9.77
2019-04-05T05:07:11.890Z,9.40
2019-04-05T05:09:42.216Z,9.37
2019-04-05T05:12:12.797Z,9.70
2019-04-05T05:14:43.400Z,9.83
2019-04-05T05:17:13.982Z,10.03
2019-04-05T05:19:44.706Z,9.57
2019-04-05T05:22:15.171Z,9.70
2019-04-05T05:24:45.735Z,10.40
2019-04-05T05:27:16.074Z,10.20
2019-04-05T05:29:46.482Z,10.13
2019-04-05T05:32:17.115Z,10.67
2019-04-05T05:34:47.487Z,11.70
2019-04-05T05:37:18.325Z,11.17
2019-04-05T05:39:48.811Z,12.57
2019-04-05T05:42:19.246Z,11.43
2019-04-05T05:44:49.764Z,11.90
2019-04-05T05:47:20.328Z,10.90
2019-04-05T05:49:50.764Z,12.73
2019-04-05T05:52:21.454Z,10.80
2019-04-05T05:54:51.828Z,13.00
2019-04-05T05:57:22.280Z,12.30
2019-04-05T05:59:52.669Z,13.47
2019-04-05T06:02:23.226Z,13.57
2019-04-05T06:04:53.546Z,13.10
2019-04-05T06:07:23.888Z,14.47
2019-04-05T06:09:54.215Z,13.57
2019-04-05T06:12:24.662Z,14.37
2019-04-05T06:14:55.082Z,14.83
2019-04-05T06:17:25.378Z,14.93
2019-04-05T06:19:55.753Z,15.87
2019-04-05T06:22:26.164Z,16.37
2019-04-05T06:24:56.468Z,16.57
2019-04-05T06:27:26.803Z,17.90
2019-04-05T06:29:57.122Z,16.70
2019-04-05T06:32:27.698Z,23.97
2019-04-05T06:34:58.006Z,20.07
2019-04-05T06:37:28.340Z,25.50
2019-04-05T06:39:58.658Z,20.43
2019-04-05T06:42:28.989Z,19.10
2019-04-05T06:44:59.365Z,26.40
2019-04-05T06:47:29.693Z,18.90
2019-04-05T06:50:00.019Z,20.50
2019-04-05T06:52:30.346Z,27.00
2019-04-05T06:55:00.688Z,19.53
2019-04-05T06:57:31.120Z,24.07
2019-04-05T07:00:01.423Z,19.20
2019-04-05T07:02:31.776Z,19.27
2019-04-05T07:05:02.136Z,19.33
2019-04-05T07:07:32.595Z,25.90
2019-04-05T07:10:02.962Z,20.07
2019-04-05T07:12:33.360Z,22.77
2019-04-05T07:15:04.020Z,20.40
2019-04-05T07:17:34.570Z,20.10
2019-04-05T07:20:05.209Z,23.67
2019-04-05T07:22:39.138Z,20.23
2019-04-05T07:25:09.260Z,21.73
2019-04-05T07:27:39.725Z,22.03
2019-04-05T07:30:10.816Z,20.50
2019-04-05T07:32:42.936Z,21.10
2019-04-05T07:35:13.272Z,23.73
2019-04-05T07:37:43.668Z,22.67
2019-04-05T07:40:13.986Z,21.80
2019-04-05T07:42:44.344Z,21.43
2019-04-05T07:45:17.337Z,19.90
2019-04-05T07:47:47.705Z,21.63
2019-04-05T07:50:18.134Z,20.63
2019-04-05T07:52:48.509Z,20.33
2019-04-05T07:55:20.306Z,19.23
2019-04-05T07:57:52.014Z,20.23
2019-04-05T08:00:42.439Z,18.73
2019-04-05T08:03:12.827Z,19.50
2019-04-05T08:09:02.184Z,18.80
2019-04-05T08:11:32.446Z,18.97
2019-04-05T08:14:02.976Z,20.43
2019-04-05T08:16:33.511Z,19.10
2019-04-05T08:19:03.854Z,18.67
2019-04-05T08:21:34.222Z,17.37
2019-04-05T08:24:04.797Z,18.07
2019-04-05T08:26:37.539Z,18.47
2019-04-05T08:29:09.829Z,19.33
2019-04-05T08:31:43.093Z,17.57
2019-04-05T08:34:13.474Z,18.60
2019-04-05T08:36:43.802Z,18.00
2019-04-05T08:39:14.224Z,17.47
2019-04-05T08:41:45.745Z,17.27
2019-04-05T08:44:16.259Z,18.07
2019-04-05T08:46:46.689Z,18.70
2019-04-05T08:49:17.019Z,18.73
2019-04-05T08:51:48.488Z,19.53
2019-04-05T08:54:31.570Z,18.57
2019-04-05T08:56:50.861Z,19.00
2019-04-05T08:59:21.322Z,18.57
2019-04-05T09:01:51.957Z,18.47
2019-04-05T09:04:22.468Z,18.93
2019-04-05T09:06:52.802Z,17.57
2019-04-05T09:09:23.180Z,19.50
2019-04-05T09:11:53.498Z,17.83
2019-04-05T09:14:23.846Z,17.43
2019-04-05T09:16:56.849Z,17.33
2019-04-05T09:19:27.278Z,17.57
2019-04-05T09:21:57.644Z,19.17
2019-04-05T09:24:27.969Z,18.40
2019-04-05T09:27:00.181Z,18.20
2019-04-05T09:29:30.446Z,17.10
2019-04-05T09:32:00.766Z,17.10
2019-04-05T09:34:31.074Z,16.90
2019-04-05T09:37:01.511Z,17.83
2019-04-05T09:39:33.032Z,17.47
2019-04-05T09:42:03.366Z,17.97
2019-04-05T09:44:33.746Z,18.47
2019-04-05T09:47:04.354Z,17.50
2019-04-05T09:49:36.851Z,16.93
2019-04-05T09:52:07.401Z,16.53
2019-04-05T09:54:38.034Z,17.80
2019-04-05T09:57:08.395Z,17.23
2019-04-05T09:59:39.456Z,16.90
2019-04-05T10:02:09.842Z,15.33
2019-04-05T10:04:40.208Z,16.60
2019-04-05T10:07:10.532Z,16.37
2019-04-05T10:09:40.902Z,15.83
2019-04-05T10:12:11.204Z,16.17
2019-04-05T10:14:41.674Z,15.57
2019-04-05T10:17:13.188Z,15.70
2019-04-05T10:19:49.657Z,17.00
2019-04-05T10:22:15.441Z,15.03
2019-04-05T10:24:45.875Z,15.73
2019-04-05T10:27:16.274Z,16.70
2019-04-05T10:29:49.378Z,16.47
2019-04-05T10:32:18.589Z,15.73
2019-04-05T10:34:48.988Z,15.50
2019-04-05T10:37:19.303Z,15.43
2019-04-05T10:39:49.842Z,15.53
2019-04-05T10:42:31.344Z,15.07
2019-04-05T10:45:01.994Z,16.07
2019-04-05T10:47:32.318Z,15.83
2019-04-05T10:50:03.785Z,15.63
2019-04-05T10:52:34.172Z,15.10
2019-04-05T10:55:04.793Z,16.00
2019-04-05T10:57:35.513Z,15.80
2019-04-05T11:00:09.149Z,16.03
2019-04-05T11:02:39.876Z,15.27
2019-04-05T11:05:10.683Z,16.33
2019-04-05T11:07:41.153Z,15.87
2019-04-05T11:10:12.265Z,18.33
2019-04-05T11:12:42.586Z,16.43
2019-04-05T11:15:15.209Z,16.70
2019-04-05T11:17:45.805Z,15.23
2019-04-05T11:20:21.561Z,16.30
2019-04-05T11:22:50.268Z,16.63
2019-04-05T11:25:22.401Z,15.70
2019-04-05T11:27:52.821Z,17.33
2019-04-05T11:30:40.118Z,17.60
2019-04-05T11:33:10.753Z,17.23
2019-04-05T11:35:41.485Z,16.43
2019-04-05T11:38:13.604Z,18.63
2019-04-05T11:40:45.210Z,17.97
2019-04-05T11:43:16.803Z,16.43
2019-04-05T11:45:48.605Z,16.97
2019-04-05T11:48:19.049Z,17.93
2019-04-05T11:50:49.550Z,17.37
2019-04-05T11:53:22.008Z,18.10
2019-04-05T11:55:51.869Z,19.90
2019-04-05T11:58:22.932Z,18.57
2019-04-05T12:01:02.027Z,17.43
2019-04-05T12:03:32.578Z,18.23
2019-04-05T12:06:02.895Z,17.70
2019-04-05T12:08:33.228Z,17.20
2019-04-05T12:11:03.638Z,17.70
2019-04-05T12:13:34.764Z,17.20
2019-04-05T12:16:06.137Z,17.20
2019-04-05T12:18:37.184Z,17.47
2019-04-05T12:21:08.126Z,18.67
2019-04-05T12:23:39.049Z,17.10
2019-04-05T12:26:09.438Z,16.63
2019-04-05T12:28:40.344Z,17.50
2019-04-05T12:31:12.530Z,17.73
2019-04-05T12:33:46.517Z,17.27
2019-04-05T12:36:15.614Z,16.87
2019-04-05T12:38:45.938Z,18.47
2019-04-05T12:41:18.274Z,18.93
2019-04-05T12:43:50.819Z,18.80
2019-04-05T12:46:20.294Z,18.80
2019-04-05T12:48:50.605Z,18.30
2019-04-05T12:51:21.924Z,17.27
2019-04-05T12:53:52.271Z,19.30
2019-04-05T12:56:24.377Z,18.70
2019-04-05T12:58:56.019Z,19.50
2019-04-05T13:01:26.784Z,18.40
2019-04-05T13:03:58.672Z,17.40
2019-04-05T13:06:29.195Z,18.83
2019-04-05T13:08:59.633Z,19.17
2019-04-05T13:11:30.110Z,18.67
2019-04-05T13:14:00.645Z,19.10
2019-04-05T13:16:31.018Z,17.60
2019-04-05T13:19:01.633Z,17.73
2019-04-05T13:21:33.116Z,18.67
2019-04-05T13:24:04.372Z,16.97
2019-04-05T13:26:36.947Z,18.13
2019-04-05T13:29:07.582Z,21.53
2019-04-05T13:31:38.150Z,17.40
2019-04-05T13:34:08.438Z,17.40
2019-04-05T13:36:38.884Z,17.10
2019-04-05T13:39:09.963Z,18.03
2019-04-05T13:41:40.455Z,17.70
2019-04-05T13:44:11.027Z,17.80
2019-04-05T13:46:42.855Z,17.93
2019-04-05T13:50:30.615Z,17.63
2019-04-05T13:53:01.346Z,17.50
2019-04-05T13:55:33.048Z,17.73
2019-04-05T13:58:03.366Z,19.03
2019-04-05T14:00:33.995Z,19.03
2019-04-05T14:03:04.333Z,19.13
2019-04-05T14:05:34.630Z,20.10
2019-04-05T14:08:10.400Z,18.50
2019-04-05T14:10:39.663Z,19.53
2019-04-05T14:13:09.991Z,19.67
2019-04-05T14:15:42.438Z,19.10
2019-04-05T14:18:15.272Z,19.60
2019-04-05T14:20:49.641Z,21.43
2019-04-05T14:23:23.328Z,20.50
2019-04-05T14:25:53.682Z,20.33
2019-04-05T14:28:23.951Z,19.43
2019-04-05T14:30:56.256Z,19.43
2019-04-05T14:33:25.918Z,20.73
2019-04-05T14:35:56.223Z,19.37
2019-04-05T14:38:26.598Z,20.33
2019-04-05T14:40:56.903Z,21.70
2019-04-05T14:43:27.213Z,20.87
2019-04-05T14:45:58.680Z,20.70
2019-04-05T14:48:31.774Z,19.77
2019-04-05T14:51:02.706Z,21.57
2019-04-05T14:53:32.823Z,21.03
2019-04-05T14:56:05.461Z,21.87
2019-04-05T14:58:37.000Z,20.40
2019-04-05T15:01:12.326Z,19.80
2019-04-05T15:03:44.084Z,20.80
2019-04-05T15:06:15.726Z,20.77
2019-04-05T15:08:47.918Z,21.03
2019-04-05T15:11:18.062Z,20.50
2019-04-05T15:13:48.963Z,21.23
2019-04-05T15:16:23.404Z,21.23
2019-04-05T15:18:54.900Z,22.77
2019-04-05T15:21:28.238Z,23.07
2019-04-05T15:23:59.955Z,21.73
2019-04-05T15:26:33.665Z,21.90
2019-04-05T15:29:05.936Z,20.50
2019-04-05T15:31:37.893Z,22.33
2019-04-05T15:34:09.751Z,23.60
2019-04-05T15:36:40.917Z,23.23
2019-04-05T15:39:13.350Z,23.80
2019-04-05T15:41:44.696Z,24.37
2019-04-05T15:44:18.398Z,23.27
2019-04-05T15:46:49.971Z,24.60
2019-04-05T15:49:22.221Z,23.77
2019-04-05T15:51:55.086Z,23.53
2019-04-05T15:54:28.993Z,22.43
2019-04-05T15:57:03.382Z,23.37
2019-04-05T15:59:34.440Z,23.00
2019-04-05T16:02:06.678Z,23.00
2019-04-05T16:04:39.816Z,22.60
2019-04-05T16:07:13.222Z,23.40
2019-04-05T16:11:48.710Z,24.07
2019-04-05T16:14:20.445Z,23.47
2019-04-05T16:16:53.718Z,22.77
2019-04-05T16:19:25.700Z,23.53
2019-04-05T16:21:57.795Z,24.10
2019-04-05T16:24:29.782Z,22.57
2019-04-05T16:27:01.719Z,25.53
2019-04-05T16:29:33.919Z,24.63
2019-04-05T16:32:05.207Z,24.93
2019-04-05T16:34:37.088Z,24.23
2019-04-05T16:37:10.097Z,23.67
2019-04-05T16:39:41.789Z,23.93
2019-04-05T16:42:16.679Z,26.00
2019-04-05T16:44:48.715Z,22.43
2019-04-05T16:47:20.680Z,23.30
2019-04-05T16:49:53.470Z,23.03
2019-04-05T16:52:25.431Z,22.63
2019-04-05T16:54:57.260Z,21.97
2019-04-05T16:57:28.902Z,25.03
2019-04-05T17:00:00.153Z,27.33
2019-04-05T17:02:31.895Z,28.33
2019-04-05T17:05:02.307Z,31.10
2019-04-05T17:07:32.742Z,25.33
2019-04-05T17:10:03.053Z,26.77
2019-04-05T17:12:33.425Z,23.53
2019-04-05T17:15:04.135Z,22.40
2019-04-05T17:17:37.013Z,29.10
2019-04-05T17:20:08.178Z,25.43
2019-04-05T17:22:38.967Z,26.10
2019-04-05T17:25:10.418Z,24.80
2019-04-05T17:27:40.829Z,31.83
2019-04-05T17:30:11.369Z,24.43
2019-04-05T17:32:41.924Z,31.40
2019-04-05T17:35:12.406Z,25.83
2019-04-05T17:37:42.716Z,22.87
2019-04-05T17:40:13.291Z,33.13
2019-04-05T17:42:43.669Z,40.90
2019-04-05T17:45:14.006Z,24.60
2019-04-05T17:47:44.319Z,24.27
2019-04-05T17:53:40.023Z,47.57
2019-04-05T17:57:03.137Z,33.93
2019-04-05T17:59:33.542Z,33.10
2019-04-05T18:02:04.180Z,26.77
2019-04-05T18:04:34.595Z,45.50
2019-04-05T18:07:04.965Z,22.23
2019-04-05T18:09:35.285Z,31.23
2019-04-05T18:12:05.903Z,50.97
2019-04-05T18:14:36.394Z,25.97
2019-04-05T18:17:07.777Z,53.60
2019-04-05T18:19:38.648Z,30.97
2019-04-05T18:22:08.898Z,38.10
2019-04-05T18:24:39.266Z,33.50
2019-04-05T18:27:09.639Z,52.77
2019-04-05T18:29:42.005Z,68.40
2019-04-05T18:32:12.386Z,29.97
2019-04-05T18:34:42.769Z,26.20
2019-04-05T18:37:13.145Z,52.37
2019-04-05T18:39:43.451Z,61.13
2019-04-05T18:42:13.767Z,42.73
2019-04-05T18:44:44.239Z,29.47
2019-04-05T18:47:14.568Z,37.83
2019-04-05T18:49:44.902Z,53.90
2019-04-05T18:52:15.246Z,29.20
2019-04-05T18:54:45.637Z,27.10
2019-04-05T18:57:17.081Z,26.93
2019-04-05T18:59:47.411Z,34.53
2019-04-05T19:02:17.727Z,38.13
2019-04-05T19:04:48.083Z,30.20
2019-04-05T19:07:18.481Z,31.37
2019-04-05T19:09:48.798Z,27.80
2019-04-05T19:12:19.162Z,25.63
2019-04-05T19:14:49.483Z,33.17
2019-04-05T19:17:24.092Z,32.73
2019-04-05T19:19:52.007Z,25.67
2019-04-05T19:22:22.393Z,39.90
2019-04-05T19:24:52.718Z,26.80
2019-04-05T19:27:24.254Z,29.37
2019-04-05T19:29:54.592Z,32.50
2019-04-05T19:50:13.370Z,43.27
2019-04-05T19:52:43.764Z,51.73
2019-04-05T19:55:15.405Z,32.73
2019-04-05T19:57:45.778Z,44.77
2019-04-05T20:00:16.173Z,37.80
2019-04-05T20:02:46.445Z,28.30
2019-04-05T20:05:16.797Z,27.27
2019-04-05T20:07:47.312Z,40.10
2019-04-05T20:10:22.414Z,31.43
2019-04-05T20:12:56.979Z,27.33
2019-04-05T20:15:27.299Z,36.00
2019-04-05T20:17:57.665Z,31.37
2019-04-05T20:20:28.009Z,31.80
2019-04-05T20:22:59.475Z,29.30
2019-04-05T20:25:29.742Z,30.87
2019-04-05T20:28:00.097Z,51.97
2019-04-05T20:30:31.553Z,30.07
2019-04-05T20:33:01.953Z,33.30
2019-04-05T20:35:32.355Z,28.33
2019-04-05T20:38:02.734Z,37.70
2019-04-05T20:40:33.119Z,27.83
2019-04-05T20:43:03.721Z,31.03
2019-04-05T20:45:34.313Z,31.83
2019-04-05T20:48:04.980Z,31.33
2019-04-05T20:50:35.360Z,46.87
2019-04-05T20:53:05.750Z,30.97
2019-04-05T20:55:37.392Z,35.70
2019-04-05T20:58:08.003Z,31.60
2019-04-05T21:00:38.870Z,43.93
2019-04-05T21:03:09.204Z,29.57
2019-04-05T21:05:39.856Z,33.97
2019-04-05T21:08:10.289Z,40.17
2019-04-05T21:10:40.900Z,31.17
2019-04-05T21:13:11.251Z,36.40
2019-04-05T21:15:41.577Z,46.60
2019-04-05T21:18:11.916Z,31.53
2019-04-05T21:20:42.271Z,29.73
2019-04-05T21:23:12.703Z,35.77
2019-04-05T21:25:43.066Z,38.80
2019-04-05T21:28:13.413Z,35.10
2019-04-05T21:30:43.762Z,29.20
2019-04-05T21:33:14.130Z,32.33
2019-04-05T21:35:46.030Z,27.97
2019-04-05T21:38:16.809Z,49.57
2019-04-05T21:40:48.710Z,34.93
2019-04-05T21:43:19.997Z,35.63
2019-04-05T21:45:50.303Z,32.63
2019-04-05T21:48:54.193Z,48.10
2019-04-05T21:51:24.722Z,36.73
2019-04-05T21:53:55.227Z,44.93
2019-04-05T21:56:25.536Z,38.50
2019-04-05T21:58:55.953Z,36.60
2019-04-05T22:01:27.662Z,42.47
2019-04-05T22:03:58.021Z,30.07
2019-04-05T22:06:28.343Z,56.50
2019-04-05T22:08:58.649Z,58.20
2019-04-05T22:11:29.071Z,38.07
2019-04-05T22:13:59.510Z,33.07
2019-04-05T22:16:29.839Z,46.00
2019-04-05T22:19:00.225Z,46.83
2019-04-05T22:21:30.525Z,51.03
2019-04-05T22:24:00.842Z,36.17
2019-04-05T22:26:32.470Z,45.87
2019-04-05T22:29:03.052Z,31.70
2019-04-05T22:31:33.425Z,40.70
2019-04-05T22:34:03.826Z,35.57
2019-04-05T22:36:34.117Z,29.73
2019-04-05T22:39:07.213Z,33.03
2019-04-05T22:41:37.676Z,33.23
2019-04-05T22:44:09.217Z,32.47
2019-04-05T22:46:40.041Z,42.70
2019-04-05T22:49:10.484Z,36.47
2019-04-05T22:51:41.261Z,31.27
2019-04-05T22:54:11.637Z,30.27
2019-04-05T22:56:41.973Z,32.27
2019-04-05T22:59:12.843Z,40.37
2019-04-05T23:01:43.394Z,42.43
2019-04-05T23:04:13.847Z,32.53
2019-04-05T23:06:44.177Z,69.30
2019-04-05T23:09:14.484Z,73.10
2019-04-05T23:11:44.866Z,70.93
2019-04-05T23:14:15.173Z,70.63
2019-04-05T23:16:45.514Z,76.40
2019-04-05T23:19:15.838Z,61.00
2019-04-05T23:21:46.292Z,39.30
2019-04-05T23:24:16.605Z,37.13
2019-04-05T23:26:46.917Z,62.87
2019-04-05T23:29:17.372Z,75.53
2019-04-05T23:31:47.756Z,61.43
2019-04-05T23:34:18.124Z,90.57
2019-04-05T23:36:48.509Z,86.53
2019-04-05T23:39:18.969Z,55.00
2019-04-05T23:41:49.335Z,55.57
2019-04-05T23:44:19.658Z,48.07
2019-04-05T23:46:51.585Z,73.47
2019-04-05T23:49:21.994Z,61.20
2019-04-05T23:51:52.414Z,62.70
2019-04-05T23:54:22.738Z,49.23
2019-04-05T23:56:53.116Z,37.63
2019-04-05T23:59:23.506Z,36.50
